^^
Saratoga-Weather Station Historical Data
Daily Summary for May 10, 2020 Units:  Both    English   Metric
Daily Weekly Monthly Yearly Custom
  High: Low: Average:
Temperature: 66 °F /  18.9 °C 55.2 °F /  12.9 °C 60.1 °F /  15.6 °C
Dew Point: 56.5 °F /  13.6 °C 52.2 °F /  11.2 °C 54.1 °F /  12.3 °C
Humidity: 96% 62% 82%
Wind Speed: 6.9mph /  11.1km/h - 1.4mph /  2.2km/h
Wind Gust: 9mph /  14.5km/h - -
Wind- - SW
Pressure: 30 in /  1015.6 hPa 29.9 in /  1010.8 hPa -
Precipitation: 0.31 in /  7.9 mm    
Historical Graphs
 
 
Tabular Data for May 10, 2020
Time Temperature Dew Point Pressure Wind Wind Speed Wind Gust Humidity Rainfall Rate (Hourly) solar
00:00 58.3 °F /  14.6 °C 52.5 °F /  11.4 °C 30in /  1015.2hPa Calm   1mph /  1.6km/h 81% 0in /  0.0mm 0 W/m2
00:05 58.1 °F /  14.5 °C 52.3 °F /  11.3 °C 30in /  1015.6hPa East 0.9mph /  1.4km/h 1mph /  1.6km/h 81% 0in /  0.0mm 0 W/m2
00:10 57.9 °F /  14.4 °C 52.5 °F /  11.4 °C 30in /  1015.2hPa Calm   2mph /  3.2km/h 82% 0in /  0.0mm 0 W/m2
00:15 57.9 °F /  14.4 °C 52.5 °F /  11.4 °C 30in /  1015.6hPa NW 2.9mph /  4.7km/h 3mph /  4.8km/h 82% 0in /  0.0mm 0 W/m2
00:20 57.9 °F /  14.4 °C 52.5 °F /  11.4 °C 30in /  1015.2hPa West 2mph /  3.2km/h 3mph /  4.8km/h 82% 0in /  0.0mm 0 W/m2
00:30 57.7 °F /  14.3 °C 52.3 °F /  11.3 °C 30in /  1015.2hPa WNW 2mph /  3.2km/h 3mph /  4.8km/h 82% 0in /  0.0mm 0 W/m2
00:35 57.7 °F /  14.3 °C 52.7 °F /  11.5 °C 30in /  1015.2hPa WNW 0.9mph /  1.4km/h 3mph /  4.8km/h 83% 0in /  0.0mm 0 W/m2
00:40 57.7 °F /  14.3 °C 52.7 °F /  11.5 °C 30in /  1015.2hPa North 4mph /  6.4km/h 4mph /  6.4km/h 83% 0in /  0.0mm 0 W/m2
00:45 57.7 °F /  14.3 °C 52.7 °F /  11.5 °C 30in /  1015.2hPa NW 0.9mph /  1.4km/h 6mph /  9.7km/h 83% 0in /  0.0mm 0 W/m2
00:50 57.7 °F /  14.3 °C 52.7 °F /  11.5 °C 30in /  1015.2hPa WNW 2.9mph /  4.7km/h 3mph /  4.8km/h 83% 0in /  0.0mm 0 W/m2
01:15 57.6 °F /  14.2 °C 52.7 °F /  11.5 °C 30in /  1015.2hPa NNE 4.9mph /  7.9km/h 5mph /  8km/h 84% 0in /  0.0mm 0 W/m2
01:20 57.6 °F /  14.2 °C 52.7 °F /  11.5 °C 30in /  1015.2hPa Calm   4mph /  6.4km/h 84% 0in /  0.0mm 0 W/m2
01:25 57.6 °F /  14.2 °C 52.7 °F /  11.5 °C 30in /  1015.2hPa WNW 2mph /  3.2km/h 2mph /  3.2km/h 84% 0in /  0.0mm 0 W/m2
01:30 57.6 °F /  14.2 °C 53.1 °F /  11.7 °C 30in /  1014.9hPa West 2mph /  3.2km/h 4mph /  6.4km/h 85% 0in /  0.0mm 0 W/m2
01:35 57.6 °F /  14.2 °C 53.1 °F /  11.7 °C 30in /  1014.9hPa NNW 2mph /  3.2km/h 3mph /  4.8km/h 85% 0in /  0.0mm 0 W/m2
01:40 57.6 °F /  14.2 °C 53.1 °F /  11.7 °C 30in /  1014.9hPa East 2mph /  3.2km/h 2mph /  3.2km/h 85% 0in /  0.0mm 0 W/m2
01:45 57.4 °F /  14.1 °C 52.9 °F /  11.6 °C 30in /  1014.9hPa WNW 2.9mph /  4.7km/h 4mph /  6.4km/h 85% 0in /  0.0mm 0 W/m2
01:50 57.4 °F /  14.1 °C 53.2 °F /  11.8 °C 30in /  1014.9hPa North 0.9mph /  1.4km/h 3mph /  4.8km/h 86% 0in /  0.0mm 0 W/m2
01:55 57.4 °F /  14.1 °C 53.2 °F /  11.8 °C 30in /  1014.9hPa Calm   4mph /  6.4km/h 86% 0in /  0.0mm 0 W/m2
02:00 57.4 °F /  14.1 °C 53.2 °F /  11.8 °C 30in /  1014.9hPa Calm   2mph /  3.2km/h 86% 0in /  0.0mm 0 W/m2
02:05 57.2 °F /  14 °C 53.1 °F /  11.7 °C 30in /  1014.9hPa Calm   4mph /  6.4km/h 86% 0in /  0.0mm 0 W/m2
02:10 57.2 °F /  14 °C 53.1 °F /  11.7 °C 30in /  1014.9hPa Calm   1mph /  1.6km/h 86% 0in /  0.0mm 0 W/m2
02:15 57.2 °F /  14 °C 53.1 °F /  11.7 °C 30in /  1014.9hPa NE 2mph /  3.2km/h 5mph /  8km/h 86% 0in /  0.0mm 0 W/m2
02:20 57 °F /  13.9 °C 52.9 °F /  11.6 °C 30in /  1014.6hPa ENE 0.9mph /  1.4km/h 2mph /  3.2km/h 86% 0in /  0.0mm 0 W/m2
02:25 57 °F /  13.9 °C 53.2 °F /  11.8 °C 30in /  1014.6hPa NE 0.9mph /  1.4km/h 5mph /  8km/h 87% 0in /  0.0mm 0 W/m2
02:30 57 °F /  13.9 °C 53.2 °F /  11.8 °C 30in /  1014.6hPa East 0.9mph /  1.4km/h 3mph /  4.8km/h 87% 0in /  0.0mm 0 W/m2
02:35 57 °F /  13.9 °C 53.2 °F /  11.8 °C 30in /  1014.6hPa East 2mph /  3.2km/h 6mph /  9.7km/h 87% 0in /  0.0mm 0 W/m2
02:40 57 °F /  13.9 °C 53.2 °F /  11.8 °C 30in /  1014.6hPa ENE 0.9mph /  1.4km/h 2mph /  3.2km/h 87% 0in /  0.0mm 0 W/m2
02:45 56.8 °F /  13.8 °C 53.1 °F /  11.7 °C 30in /  1014.6hPa Calm   1mph /  1.6km/h 87% 0in /  0.0mm 0 W/m2
02:50 56.8 °F /  13.8 °C 53.1 °F /  11.7 °C 30in /  1014.6hPa SSE 0.9mph /  1.4km/h 2mph /  3.2km/h 87% 0in /  0.0mm 0 W/m2
02:56 56.8 °F /  13.8 °C 53.1 °F /  11.7 °C 30in /  1014.6hPa Calm   1mph /  1.6km/h 87% 0in /  0.0mm 0 W/m2
03:01 56.8 °F /  13.8 °C 53.1 °F /  11.7 °C 30in /  1014.6hPa Calm   2mph /  3.2km/h 87% 0in /  0.0mm 0 W/m2
03:06 56.7 °F /  13.7 °C 52.9 °F /  11.6 °C 30in /  1014.6hPa WNW 0.9mph /  1.4km/h 3mph /  4.8km/h 87% 0in /  0.0mm 0 W/m2
03:11 56.7 °F /  13.7 °C 53.1 °F /  11.7 °C 30in /  1014.6hPa Calm   2mph /  3.2km/h 88% 0in /  0.0mm 0 W/m2
03:16 56.7 °F /  13.7 °C 53.1 °F /  11.7 °C 30in /  1014.6hPa Calm   1mph /  1.6km/h 88% 0in /  0.0mm 0 W/m2
03:21 56.5 °F /  13.6 °C 52.9 °F /  11.6 °C 30in /  1014.6hPa Calm   2mph /  3.2km/h 88% 0in /  0.0mm 0 W/m2
03:26 56.5 °F /  13.6 °C 52.9 °F /  11.6 °C 30in /  1014.6hPa NE 0.9mph /  1.4km/h 2mph /  3.2km/h 88% 0in /  0.0mm 0 W/m2
03:31 56.5 °F /  13.6 °C 52.9 °F /  11.6 °C 30in /  1014.6hPa Calm   2mph /  3.2km/h 88% 0in /  0.0mm 0 W/m2
03:36 56.5 °F /  13.6 °C 52.9 °F /  11.6 °C 30in /  1014.6hPa Calm   2mph /  3.2km/h 88% 0in /  0.0mm 0 W/m2
03:41 56.5 °F /  13.6 °C 53.2 °F /  11.8 °C 30in /  1014.6hPa SE 0.9mph /  1.4km/h 2mph /  3.2km/h 89% 0in /  0.0mm 0 W/m2
03:46 56.5 °F /  13.6 °C 53.2 °F /  11.8 °C 30in /  1014.6hPa SE 2mph /  3.2km/h 2mph /  3.2km/h 89% 0in /  0.0mm 0 W/m2
03:51 56.5 °F /  13.6 °C 53.2 °F /  11.8 °C 30in /  1014.2hPa WNW 0.9mph /  1.4km/h 3mph /  4.8km/h 89% 0in /  0.0mm 0 W/m2
03:56 56.5 °F /  13.6 °C 53.2 °F /  11.8 °C 30in /  1014.2hPa Calm   6mph /  9.7km/h 89% 0in /  0.0mm 0 W/m2
04:01 56.5 °F /  13.6 °C 53.2 °F /  11.8 °C 30in /  1014.2hPa West 0.9mph /  1.4km/h 2mph /  3.2km/h 89% 0in /  0.0mm 0 W/m2
04:06 56.5 °F /  13.6 °C 52.9 °F /  11.6 °C 30in /  1014.2hPa West 0.9mph /  1.4km/h 5mph /  8km/h 88% 0in /  0.0mm 0 W/m2
04:11 56.5 °F /  13.6 °C 52.9 °F /  11.6 °C 30in /  1014.2hPa WNW 0.9mph /  1.4km/h 4mph /  6.4km/h 88% 0in /  0.0mm 0 W/m2
04:16 56.5 °F /  13.6 °C 52.9 °F /  11.6 °C 30in /  1014.2hPa Calm   1mph /  1.6km/h 88% 0in /  0.0mm 0 W/m2
04:21 56.5 °F /  13.6 °C 52.9 °F /  11.6 °C 29.9in /  1013.9hPa Calm   4mph /  6.4km/h 88% 0in /  0.0mm 0 W/m2
04:26 56.5 °F /  13.6 °C 52.9 °F /  11.6 °C 30in /  1014.2hPa ENE 0.9mph /  1.4km/h 1mph /  1.6km/h 88% 0in /  0.0mm 0 W/m2
04:31 56.5 °F /  13.6 °C 52.9 °F /  11.6 °C 29.9in /  1013.9hPa Calm   1mph /  1.6km/h 88% 0in /  0.0mm 0 W/m2
04:36 56.3 °F /  13.5 °C 52.9 °F /  11.6 °C 29.9in /  1013.9hPa NE 0.9mph /  1.4km/h 1mph /  1.6km/h 88% 0in /  0.0mm 0 W/m2
04:41 56.3 °F /  13.5 °C 52.9 °F /  11.6 °C 29.9in /  1013.9hPa Calm     88% 0in /  0.0mm 0 W/m2
04:46 56.1 °F /  13.4 °C 52.7 °F /  11.5 °C 29.9in /  1013.9hPa Calm     88% 0in /  0.0mm 0 W/m2
04:51 56.1 °F /  13.4 °C 52.9 °F /  11.6 °C 29.9in /  1013.9hPa Calm   1mph /  1.6km/h 89% 0in /  0.0mm 0 W/m2
04:56 56.1 °F /  13.4 °C 52.9 °F /  11.6 °C 29.9in /  1013.9hPa NE 2mph /  3.2km/h 4mph /  6.4km/h 89% 0in /  0.0mm 0 W/m2
05:01 56.1 °F /  13.4 °C 52.9 °F /  11.6 °C 29.9in /  1013.9hPa NNE 0.9mph /  1.4km/h 2mph /  3.2km/h 89% 0in /  0.0mm 0 W/m2
05:06 56.1 °F /  13.4 °C 52.9 °F /  11.6 °C 29.9in /  1013.9hPa Calm   3mph /  4.8km/h 89% 0in /  0.0mm 0 W/m2
05:12 56.1 °F /  13.4 °C 52.9 °F /  11.6 °C 29.9in /  1013.9hPa North 0.9mph /  1.4km/h 1mph /  1.6km/h 89% 0in /  0.0mm 0 W/m2
05:17 56.1 °F /  13.4 °C 52.9 °F /  11.6 °C 29.9in /  1013.9hPa Calm     89% 0in /  0.0mm 0 W/m2
05:22 56.1 °F /  13.4 °C 52.9 °F /  11.6 °C 29.9in /  1013.9hPa Calm     89% 0in /  0.0mm 0 W/m2
05:27 55.9 °F /  13.3 °C 52.7 °F /  11.5 °C 29.9in /  1013.9hPa Calm     89% 0in /  0.0mm 0 W/m2
05:32 55.9 °F /  13.3 °C 52.7 °F /  11.5 °C 29.9in /  1013.9hPa Calm     89% 0in /  0.0mm 0 W/m2
05:37 55.9 °F /  13.3 °C 52.7 °F /  11.5 °C 29.9in /  1013.9hPa Calm     89% 0in /  0.0mm 5 W/m2
05:42 55.8 °F /  13.2 °C 52.5 °F /  11.4 °C 29.9in /  1013.9hPa East 0.9mph /  1.4km/h 2mph /  3.2km/h 89% 0in /  0.0mm 7 W/m2
05:47 55.8 °F /  13.2 °C 52.5 °F /  11.4 °C 29.9in /  1013.9hPa Calm     89% 0in /  0.0mm 9 W/m2
05:52 55.6 °F /  13.1 °C 52.3 °F /  11.3 °C 29.9in /  1013.9hPa SW 2mph /  3.2km/h 2mph /  3.2km/h 89% 0in /  0.0mm 12 W/m2
05:57 55.4 °F /  13 °C 52.2 °F /  11.2 °C 29.9in /  1013.9hPa SW 0.9mph /  1.4km/h 1mph /  1.6km/h 89% 0in /  0.0mm 18 W/m2
06:02 55.2 °F /  12.9 °C 52.3 °F /  11.3 °C 29.9in /  1013.9hPa Calm   3mph /  4.8km/h 90% 0in /  0.0mm 25 W/m2
06:07 55.2 °F /  12.9 °C 52.3 °F /  11.3 °C 29.9in /  1013.9hPa SSW 0.9mph /  1.4km/h 2mph /  3.2km/h 90% 0in /  0.0mm 30 W/m2
06:12 55.2 °F /  12.9 °C 52.3 °F /  11.3 °C 29.9in /  1013.9hPa Calm   3mph /  4.8km/h 90% 0in /  0.0mm 37 W/m2
06:17 55.2 °F /  12.9 °C 52.3 °F /  11.3 °C 29.9in /  1013.9hPa Calm   1mph /  1.6km/h 90% 0in /  0.0mm 39 W/m2
06:22 55.2 °F /  12.9 °C 52.3 °F /  11.3 °C 29.9in /  1013.9hPa Calm     90% 0in /  0.0mm 42 W/m2
06:27 55.2 °F /  12.9 °C 52.3 °F /  11.3 °C 29.9in /  1013.9hPa Calm     90% 0in /  0.0mm 42 W/m2
06:32 55.4 °F /  13 °C 52.5 °F /  11.4 °C 29.9in /  1013.9hPa WNW 0.9mph /  1.4km/h 2mph /  3.2km/h 90% 0in /  0.0mm 46 W/m2
06:37 55.6 °F /  13.1 °C 52.7 °F /  11.5 °C 29.9in /  1013.9hPa Calm   2mph /  3.2km/h 90% 0in /  0.0mm 49 W/m2
06:42 55.6 °F /  13.1 °C 52.7 °F /  11.5 °C 29.9in /  1013.9hPa WNW 0.9mph /  1.4km/h 2mph /  3.2km/h 90% 0in /  0.0mm 56 W/m2
06:47 55.8 °F /  13.2 °C 52.9 °F /  11.6 °C 29.9in /  1013.9hPa WNW 0.9mph /  1.4km/h 2mph /  3.2km/h 90% 0in /  0.0mm 67 W/m2
06:52 55.9 °F /  13.3 °C 53.1 °F /  11.7 °C 29.9in /  1013.9hPa Calm     90% 0in /  0.0mm 70 W/m2
06:57 55.9 °F /  13.3 °C 53.1 °F /  11.7 °C 29.9in /  1013.9hPa Calm   2mph /  3.2km/h 90% 0in /  0.0mm 81 W/m2
07:02 56.1 °F /  13.4 °C 53.2 °F /  11.8 °C 29.9in /  1013.9hPa Calm   1mph /  1.6km/h 90% 0in /  0.0mm 100 W/m2
07:07 56.5 °F /  13.6 °C 53.6 °F /  12 °C 29.9in /  1013.9hPa East 0.9mph /  1.4km/h 2mph /  3.2km/h 90% 0in /  0.0mm 104 W/m2
07:12 56.7 °F /  13.7 °C 53.4 °F /  11.9 °C 29.9in /  1013.9hPa ENE 2mph /  3.2km/h 2mph /  3.2km/h 89% 0in /  0.0mm 107 W/m2
07:17 56.8 °F /  13.8 °C 53.6 °F /  12 °C 29.9in /  1013.9hPa ENE 2mph /  3.2km/h 4mph /  6.4km/h 89% 0in /  0.0mm 100 W/m2
07:22 56.8 °F /  13.8 °C 53.2 °F /  11.8 °C 29.9in /  1013.9hPa Calm   2mph /  3.2km/h 88% 0in /  0.0mm 86 W/m2
07:27 56.8 °F /  13.8 °C 53.2 °F /  11.8 °C 29.9in /  1013.9hPa ENE 0.9mph /  1.4km/h 4mph /  6.4km/h 88% 0in /  0.0mm 72 W/m2
07:32 57 °F /  13.9 °C 53.4 °F /  11.9 °C 29.9in /  1013.9hPa North 2mph /  3.2km/h 2mph /  3.2km/h 88% 0in /  0.0mm 69 W/m2
07:38 57 °F /  13.9 °C 53.4 °F /  11.9 °C 29.9in /  1013.9hPa East 0.9mph /  1.4km/h 1mph /  1.6km/h 88% 0in /  0.0mm 67 W/m2
07:43 57 °F /  13.9 °C 53.4 °F /  11.9 °C 29.9in /  1013.9hPa East 0.9mph /  1.4km/h 1mph /  1.6km/h 88% 0in /  0.0mm 74 W/m2
07:48 57 °F /  13.9 °C 53.4 °F /  11.9 °C 29.9in /  1013.9hPa ENE 2mph /  3.2km/h 2mph /  3.2km/h 88% 0in /  0.0mm 81 W/m2
07:53 56.8 °F /  13.8 °C 53.2 °F /  11.8 °C 29.9in /  1013.9hPa East 4mph /  6.4km/h 4mph /  6.4km/h 88% 0in /  0.0mm 90 W/m2
07:58 56.8 °F /  13.8 °C 53.2 °F /  11.8 °C 29.9in /  1013.9hPa Calm   2mph /  3.2km/h 88% 0in /  0.0mm 100 W/m2
08:03 56.8 °F /  13.8 °C 53.2 °F /  11.8 °C 29.9in /  1013.9hPa East 0.9mph /  1.4km/h 2mph /  3.2km/h 88% 0in /  0.0mm 118 W/m2
08:08 57 °F /  13.9 °C 53.4 °F /  11.9 °C 29.9in /  1013.9hPa ENE 0.9mph /  1.4km/h 1mph /  1.6km/h 88% 0in /  0.0mm 123 W/m2
08:13 57 °F /  13.9 °C 53.4 °F /  11.9 °C 29.9in /  1013.9hPa West 2mph /  3.2km/h 5mph /  8km/h 88% 0in /  0.0mm 142 W/m2
08:18 57.2 °F /  14 °C 53.6 °F /  12 °C 29.9in /  1013.9hPa NW 0.9mph /  1.4km/h 6mph /  9.7km/h 88% 0in /  0.0mm 200 W/m2
08:23 57.6 °F /  14.2 °C 54 °F /  12.2 °C 29.9in /  1013.9hPa North 0.9mph /  1.4km/h 3mph /  4.8km/h 88% 0in /  0.0mm 163 W/m2
08:28 57.7 °F /  14.3 °C 54.1 °F /  12.3 °C 29.9in /  1013.9hPa North 2mph /  3.2km/h 6mph /  9.7km/h 88% 0in /  0.0mm 158 W/m2
08:33 57.9 °F /  14.4 °C 54.1 °F /  12.3 °C 29.9in /  1013.9hPa WNW 0.9mph /  1.4km/h 2mph /  3.2km/h 87% 0in /  0.0mm 274 W/m2
08:38 58.3 °F /  14.6 °C 54.5 °F /  12.5 °C 29.9in /  1013.9hPa East 0.9mph /  1.4km/h 4mph /  6.4km/h 87% 0in /  0.0mm 260 W/m2
08:43 58.6 °F /  14.8 °C 54.5 °F /  12.5 °C 29.9in /  1013.9hPa WNW 0.9mph /  1.4km/h 3mph /  4.8km/h 86% 0in /  0.0mm 192 W/m2
08:48 58.8 °F /  14.9 °C 54.7 °F /  12.6 °C 29.9in /  1013.9hPa WNW 0.9mph /  1.4km/h 3mph /  4.8km/h 86% 0in /  0.0mm 199 W/m2
08:53 59 °F /  15 °C 54.5 °F /  12.5 °C 29.9in /  1013.9hPa West 2mph /  3.2km/h 2mph /  3.2km/h 85% 0in /  0.0mm 195 W/m2
08:58 59.2 °F /  15.1 °C 54.7 °F /  12.6 °C 29.9in /  1013.9hPa West 0.9mph /  1.4km/h 4mph /  6.4km/h 85% 0in /  0.0mm 178 W/m2
09:03 59.2 °F /  15.1 °C 54.3 °F /  12.4 °C 29.9in /  1013.9hPa Calm   2mph /  3.2km/h 84% 0in /  0.0mm 174 W/m2
09:08 59.4 °F /  15.2 °C 54.9 °F /  12.7 °C 29.9in /  1013.9hPa ENE 2.9mph /  4.7km/h 4mph /  6.4km/h 85% 0in /  0.0mm 153 W/m2
09:13 59.4 °F /  15.2 °C 54.5 °F /  12.5 °C 29.9in /  1013.9hPa East 0.9mph /  1.4km/h 2mph /  3.2km/h 84% 0in /  0.0mm 137 W/m2
09:18 59.5 °F /  15.3 °C 54.7 °F /  12.6 °C 29.9in /  1013.9hPa Calm   1mph /  1.6km/h 84% 0in /  0.0mm 137 W/m2
09:23 59.5 °F /  15.3 °C 54.7 °F /  12.6 °C 29.9in /  1013.9hPa ENE 0.9mph /  1.4km/h 3mph /  4.8km/h 84% 0in /  0.0mm 153 W/m2
09:28 59.5 °F /  15.3 °C 54.3 °F /  12.4 °C 29.9in /  1013.9hPa NE 0.9mph /  1.4km/h 6mph /  9.7km/h 83% 0in /  0.0mm 174 W/m2
09:33 59.5 °F /  15.3 °C 54.7 °F /  12.6 °C 29.9in /  1013.9hPa NE 0.9mph /  1.4km/h 3mph /  4.8km/h 84% 0in /  0.0mm 192 W/m2
09:38 59.5 °F /  15.3 °C 54.7 °F /  12.6 °C 29.9in /  1013.9hPa North 2mph /  3.2km/h 4mph /  6.4km/h 84% 0in /  0.0mm 213 W/m2
09:43 59.7 °F /  15.4 °C 54.9 °F /  12.7 °C 29.9in /  1013.9hPa Calm   1mph /  1.6km/h 84% 0in /  0.0mm 209 W/m2
09:48 60.1 °F /  15.6 °C 55.2 °F /  12.9 °C 29.9in /  1013.9hPa WNW 2mph /  3.2km/h 7mph /  11.3km/h 84% 0in /  0.0mm 216 W/m2
09:53 59.7 °F /  15.4 °C 54.9 °F /  12.7 °C 29.9in /  1013.9hPa WNW 2.9mph /  4.7km/h 6mph /  9.7km/h 84% 0in /  0.0mm 218 W/m2
09:58 59.7 °F /  15.4 °C 54.9 °F /  12.7 °C 29.9in /  1013.9hPa NNW 2mph /  3.2km/h 3mph /  4.8km/h 84% 0in /  0.0mm 257 W/m2
10:03 60.1 °F /  15.6 °C 55.2 °F /  12.9 °C 29.9in /  1013.9hPa North 0.9mph /  1.4km/h 3mph /  4.8km/h 84% 0in /  0.0mm 323 W/m2
10:08 60.3 °F /  15.7 °C 55 °F /  12.8 °C 29.9in /  1013.9hPa NNE 0.9mph /  1.4km/h 2mph /  3.2km/h 83% 0in /  0.0mm 315 W/m2
10:13 60.4 °F /  15.8 °C 55.2 °F /  12.9 °C 29.9in /  1013.9hPa WNW 2.9mph /  4.7km/h 4mph /  6.4km/h 83% 0in /  0.0mm 334 W/m2
10:18 60.6 °F /  15.9 °C 55.4 °F /  13 °C 29.9in /  1013.9hPa North 2.9mph /  4.7km/h 3mph /  4.8km/h 83% 0in /  0.0mm 353 W/m2
10:23 61.2 °F /  16.2 °C 55.6 °F /  13.1 °C 29.9in /  1013.9hPa NW 0.9mph /  1.4km/h 3mph /  4.8km/h 82% 0in /  0.0mm 348 W/m2
10:28 61.2 °F /  16.2 °C 55.2 °F /  12.9 °C 29.9in /  1013.9hPa North 0.9mph /  1.4km/h 4mph /  6.4km/h 81% 0in /  0.0mm 341 W/m2
10:33 61.5 °F /  16.4 °C 55.6 °F /  13.1 °C 29.9in /  1013.9hPa Calm     81% 0in /  0.0mm 311 W/m2
10:38 61.9 °F /  16.6 °C 55.6 °F /  13.1 °C 29.9in /  1013.5hPa NE 0.9mph /  1.4km/h 2mph /  3.2km/h 80% 0in /  0.0mm 304 W/m2
10:43 62.2 °F /  16.8 °C 55.6 °F /  13.1 °C 29.9in /  1013.5hPa NNW 0.9mph /  1.4km/h 3mph /  4.8km/h 79% 0in /  0.0mm 320 W/m2
10:48 62.2 °F /  16.8 °C 55.2 °F /  12.9 °C 29.9in /  1013.5hPa NE 0.9mph /  1.4km/h 1mph /  1.6km/h 78% 0in /  0.0mm 325 W/m2
10:53 62.4 °F /  16.9 °C 55.8 °F /  13.2 °C 29.9in /  1013.5hPa Calm   1mph /  1.6km/h 79% 0in /  0.0mm 332 W/m2
10:58 63 °F /  17.2 °C 55.9 °F /  13.3 °C 29.9in /  1013.5hPa North 0.9mph /  1.4km/h 3mph /  4.8km/h 78% 0in /  0.0mm 348 W/m2
11:03 63.1 °F /  17.3 °C 55.8 °F /  13.2 °C 29.9in /  1013.5hPa South 0.9mph /  1.4km/h 2mph /  3.2km/h 77% 0in /  0.0mm 371 W/m2
11:09 63 °F /  17.2 °C 54.9 °F /  12.7 °C 29.9in /  1013.5hPa NNW 2mph /  3.2km/h 3mph /  4.8km/h 75% 0in /  0.0mm 450 W/m2
11:14 63.1 °F /  17.3 °C 54.7 °F /  12.6 °C 29.9in /  1013.5hPa NNW 2mph /  3.2km/h 3mph /  4.8km/h 74% 0in /  0.0mm 390 W/m2
11:19 63.3 °F /  17.4 °C 54.9 °F /  12.7 °C 29.9in /  1013.5hPa West 0.9mph /  1.4km/h 6mph /  9.7km/h 74% 0in /  0.0mm 631 W/m2
11:24 63.7 °F /  17.6 °C 54.9 °F /  12.7 °C 29.9in /  1013.5hPa West 6mph /  9.7km/h 6mph /  9.7km/h 73% 0in /  0.0mm 796 W/m2
11:29 63.9 °F /  17.7 °C 53.1 °F /  11.7 °C 29.9in /  1013.2hPa WSW 4.9mph /  7.9km/h 6mph /  9.7km/h 68% 0in /  0.0mm 381 W/m2
11:34 63.7 °F /  17.6 °C 52.9 °F /  11.6 °C 29.9in /  1013.2hPa NW 2mph /  3.2km/h 2mph /  3.2km/h 68% 0in /  0.0mm 406 W/m2
11:39 64.2 °F /  17.9 °C 53.1 °F /  11.7 °C 29.9in /  1013.2hPa South 0.9mph /  1.4km/h 2mph /  3.2km/h 67% 0in /  0.0mm 977 W/m2
11:44 65.1 °F /  18.4 °C 53.1 °F /  11.7 °C 29.9in /  1013.2hPa NNW 2.9mph /  4.7km/h 3mph /  4.8km/h 65% 0in /  0.0mm 461 W/m2
11:49 65.3 °F /  18.5 °C 53.6 °F /  12 °C 29.9in /  1013.2hPa Calm   2mph /  3.2km/h 66% 0in /  0.0mm 220 W/m2
11:54 64.9 °F /  18.3 °C 53.2 °F /  11.8 °C 29.9in /  1013.2hPa NW 0.9mph /  1.4km/h 4mph /  6.4km/h 66% 0in /  0.0mm 162 W/m2
11:59 64.4 °F /  18 °C 53.6 °F /  12 °C 29.9in /  1013.2hPa NNW 0.9mph /  1.4km/h 3mph /  4.8km/h 68% 0in /  0.0mm 128 W/m2
12:04 64.2 °F /  17.9 °C 53.4 °F /  11.9 °C 29.9in /  1013.2hPa ENE 2mph /  3.2km/h 4mph /  6.4km/h 68% 0in /  0.0mm 153 W/m2
12:09 63.9 °F /  17.7 °C 53.4 °F /  11.9 °C 29.9in /  1013.2hPa NNW 2.9mph /  4.7km/h 3mph /  4.8km/h 69% 0in /  0.0mm 160 W/m2
12:14 63.7 °F /  17.6 °C 52.9 °F /  11.6 °C 29.9in /  1013.2hPa ENE 4mph /  6.4km/h 5mph /  8km/h 68% 0in /  0.0mm 155 W/m2
12:19 63.7 °F /  17.6 °C 53.8 °F /  12.1 °C 29.9in /  1012.9hPa North 0.9mph /  1.4km/h 2mph /  3.2km/h 70% 0in /  0.0mm 193 W/m2
12:24 63.7 °F /  17.6 °C 53.2 °F /  11.8 °C 29.9in /  1012.9hPa NE 0.9mph /  1.4km/h 4mph /  6.4km/h 69% 0in /  0.0mm 211 W/m2
12:29 63.9 °F /  17.7 °C 54.3 °F /  12.4 °C 29.9in /  1012.9hPa NNE 0.9mph /  1.4km/h 1mph /  1.6km/h 71% 0in /  0.0mm 209 W/m2
12:34 63.9 °F /  17.7 °C 54 °F /  12.2 °C 29.9in /  1012.9hPa NE 2mph /  3.2km/h 2mph /  3.2km/h 70% 0in /  0.0mm 213 W/m2
12:39 64 °F /  17.8 °C 53.6 °F /  12 °C 29.9in /  1012.9hPa NW 0.9mph /  1.4km/h 3mph /  4.8km/h 69% 0in /  0.0mm 227 W/m2
12:44 64 °F /  17.8 °C 53.6 °F /  12 °C 29.9in /  1012.9hPa West 2mph /  3.2km/h 3mph /  4.8km/h 69% 0in /  0.0mm 214 W/m2
12:49 64 °F /  17.8 °C 53.6 °F /  12 °C 29.9in /  1012.9hPa North 0.9mph /  1.4km/h 3mph /  4.8km/h 69% 0in /  0.0mm 221 W/m2
12:54 63.9 °F /  17.7 °C 54 °F /  12.2 °C 29.9in /  1012.9hPa Calm   1mph /  1.6km/h 70% 0in /  0.0mm 237 W/m2
12:59 64 °F /  17.8 °C 54.1 °F /  12.3 °C 29.9in /  1012.9hPa NW 0.9mph /  1.4km/h 3mph /  4.8km/h 70% 0in /  0.0mm 274 W/m2
13:04 64.2 °F /  17.9 °C 53.8 °F /  12.1 °C 29.9in /  1012.9hPa North 2mph /  3.2km/h 5mph /  8km/h 69% 0in /  0.0mm 308 W/m2
13:09 64.2 °F /  17.9 °C 54.3 °F /  12.4 °C 29.9in /  1012.9hPa NNE 0.9mph /  1.4km/h 2mph /  3.2km/h 70% 0in /  0.0mm 313 W/m2
13:14 64.6 °F /  18.1 °C 54.1 °F /  12.3 °C 29.9in /  1012.9hPa North 0.9mph /  1.4km/h 7mph /  11.3km/h 69% 0in /  0.0mm 318 W/m2
13:19 64.8 °F /  18.2 °C 54 °F /  12.2 °C 29.9in /  1012.9hPa Calm   2mph /  3.2km/h 68% 0in /  0.0mm 323 W/m2
13:24 64.8 °F /  18.2 °C 54 °F /  12.2 °C 29.9in /  1012.5hPa NNW 2mph /  3.2km/h 5mph /  8km/h 68% 0in /  0.0mm 330 W/m2
13:29 64.9 °F /  18.3 °C 54.1 °F /  12.3 °C 29.9in /  1012.5hPa WNW 2.9mph /  4.7km/h 4mph /  6.4km/h 68% 0in /  0.0mm 341 W/m2
13:34 64.8 °F /  18.2 °C 54 °F /  12.2 °C 29.9in /  1012.5hPa WNW 2.9mph /  4.7km/h 4mph /  6.4km/h 68% 0in /  0.0mm 385 W/m2
13:39 64.8 °F /  18.2 °C 54 °F /  12.2 °C 29.9in /  1012.5hPa West 2.9mph /  4.7km/h 6mph /  9.7km/h 68% 0in /  0.0mm 362 W/m2
13:44 64.8 °F /  18.2 °C 54 °F /  12.2 °C 29.9in /  1012.5hPa WSW 2mph /  3.2km/h 6mph /  9.7km/h 68% 0in /  0.0mm 497 W/m2
13:49 64.9 °F /  18.3 °C 52.9 °F /  11.6 °C 29.9in /  1012.5hPa WNW 6.9mph /  11.1km/h 8mph /  12.9km/h 65% 0in /  0.0mm 626 W/m2
13:54 64.9 °F /  18.3 °C 52.9 °F /  11.6 °C 29.9in /  1012.5hPa WNW 4mph /  6.4km/h 6mph /  9.7km/h 65% 0in /  0.0mm 353 W/m2
13:59 64.9 °F /  18.3 °C 52.5 °F /  11.4 °C 29.9in /  1012.5hPa NW 4mph /  6.4km/h 4mph /  6.4km/h 64% 0in /  0.0mm 360 W/m2
14:04 65.3 °F /  18.5 °C 52.9 °F /  11.6 °C 29.9in /  1012.5hPa NW 0.9mph /  1.4km/h 2mph /  3.2km/h 64% 0in /  0.0mm 367 W/m2
14:09 65.7 °F /  18.7 °C 53.2 °F /  11.8 °C 29.9in /  1012.5hPa NW 0.9mph /  1.4km/h 3mph /  4.8km/h 64% 0in /  0.0mm 376 W/m2
14:14 65.8 °F /  18.8 °C 52.9 °F /  11.6 °C 29.9in /  1012.5hPa SE 2mph /  3.2km/h 3mph /  4.8km/h 63% 0in /  0.0mm 345 W/m2
14:19 66 °F /  18.9 °C 52.7 °F /  11.5 °C 29.9in /  1012.5hPa NNW 2mph /  3.2km/h 3mph /  4.8km/h 62% 0in /  0.0mm 325 W/m2
14:24 66 °F /  18.9 °C 53.1 °F /  11.7 °C 29.9in /  1012.5hPa North 0.9mph /  1.4km/h 2mph /  3.2km/h 63% 0in /  0.0mm 285 W/m2
14:29 66 °F /  18.9 °C 53.1 °F /  11.7 °C 29.9in /  1012.2hPa ENE 4.9mph /  7.9km/h 6mph /  9.7km/h 63% 0in /  0.0mm 234 W/m2
14:34 65.8 °F /  18.8 °C 53.8 °F /  12.1 °C 29.9in /  1012.2hPa West 4mph /  6.4km/h 6mph /  9.7km/h 65% 0in /  0.0mm 155 W/m2
14:39 65.5 °F /  18.6 °C 53.4 °F /  11.9 °C 29.9in /  1012.2hPa WNW 2.9mph /  4.7km/h 7mph /  11.3km/h 65% 0in /  0.0mm 169 W/m2
14:44 65.1 °F /  18.4 °C 53.1 °F /  11.7 °C 29.9in /  1012.2hPa West 2.9mph /  4.7km/h 6mph /  9.7km/h 65% 0in /  0.0mm 165 W/m2
14:49 64.9 °F /  18.3 °C 53.2 °F /  11.8 °C 29.9in /  1012.2hPa WNW 2.9mph /  4.7km/h 7mph /  11.3km/h 66% 0in /  0.0mm 183 W/m2
14:54 64.9 °F /  18.3 °C 53.8 °F /  12.1 °C 29.9in /  1012.2hPa North 0.9mph /  1.4km/h 3mph /  4.8km/h 67% 0in /  0.0mm 200 W/m2
14:59 64.9 °F /  18.3 °C 53.8 °F /  12.1 °C 29.9in /  1012.2hPa West 2mph /  3.2km/h 6mph /  9.7km/h 67% 0in /  0.0mm 251 W/m2
15:05 65.1 °F /  18.4 °C 54 °F /  12.2 °C 29.9in /  1012.2hPa NW 2.9mph /  4.7km/h 4mph /  6.4km/h 67% 0in /  0.0mm 288 W/m2
15:10 65.1 °F /  18.4 °C 54 °F /  12.2 °C 29.9in /  1012.2hPa WNW 2.9mph /  4.7km/h 5mph /  8km/h 67% 0in /  0.0mm 230 W/m2
15:15 64.9 °F /  18.3 °C 53.8 °F /  12.1 °C 29.9in /  1012.2hPa NW 2mph /  3.2km/h 6mph /  9.7km/h 67% 0in /  0.0mm 165 W/m2
15:20 64.9 °F /  18.3 °C 53.8 °F /  12.1 °C 29.9in /  1012.2hPa NNW 0.9mph /  1.4km/h 3mph /  4.8km/h 67% 0in /  0.0mm 98 W/m2
15:25 64.9 °F /  18.3 °C 53.8 °F /  12.1 °C 29.9in /  1012.2hPa WNW 2mph /  3.2km/h 5mph /  8km/h 67% 0in /  0.0mm 90 W/m2
15:30 64.8 °F /  18.2 °C 53.6 °F /  12 °C 29.9in /  1011.9hPa NW 2.9mph /  4.7km/h 4mph /  6.4km/h 67% 0in /  0.0mm 98 W/m2
15:35 64.6 °F /  18.1 °C 53.8 °F /  12.1 °C 29.9in /  1011.9hPa NNW 0.9mph /  1.4km/h 4mph /  6.4km/h 68% 0in /  0.0mm 113 W/m2
15:40 64.4 °F /  18 °C 53.6 °F /  12 °C 29.9in /  1012.2hPa WNW 4mph /  6.4km/h 4mph /  6.4km/h 68% 0in /  0.0mm 127 W/m2
15:45 64 °F /  17.8 °C 53.6 °F /  12 °C 29.9in /  1012.2hPa West 4mph /  6.4km/h 9mph /  14.5km/h 69% 0in /  0.0mm 144 W/m2
15:50 63.7 °F /  17.6 °C 53.8 °F /  12.1 °C 29.9in /  1011.9hPa NW 2mph /  3.2km/h 7mph /  11.3km/h 70% 0in /  0.0mm 167 W/m2
15:55 63.3 °F /  17.4 °C 53.8 °F /  12.1 °C 29.9in /  1011.9hPa WNW 4mph /  6.4km/h 9mph /  14.5km/h 71% 0in /  0.0mm 169 W/m2
16:00 63.1 °F /  17.3 °C 54.3 °F /  12.4 °C 29.9in /  1011.9hPa NW 4.9mph /  7.9km/h 5mph /  8km/h 73% 0in /  0.0mm 151 W/m2
16:05 62.6 °F /  17 °C 54.1 °F /  12.3 °C 29.9in /  1011.9hPa NNW 2mph /  3.2km/h 5mph /  8km/h 74% 0in /  0.0mm 135 W/m2
16:10 62.2 °F /  16.8 °C 54.5 °F /  12.5 °C 29.9in /  1011.9hPa NW 2mph /  3.2km/h 5mph /  8km/h 76% 0in /  0.0mm 144 W/m2
16:15 62.1 °F /  16.7 °C 55 °F /  12.8 °C 29.9in /  1011.9hPa West 2.9mph /  4.7km/h 5mph /  8km/h 78% 0in /  0.0mm 148 W/m2
16:20 61.9 °F /  16.6 °C 54.9 °F /  12.7 °C 29.9in /  1011.9hPa West 6.9mph /  11.1km/h 7mph /  11.3km/h 78% 0in /  0.0mm 149 W/m2
16:25 61.9 °F /  16.6 °C 54.9 °F /  12.7 °C 29.9in /  1011.9hPa West 6mph /  9.7km/h 7mph /  11.3km/h 78% 0in /  0.0mm 171 W/m2
16:30 61.9 °F /  16.6 °C 55.2 °F /  12.9 °C 29.9in /  1011.9hPa West 2.9mph /  4.7km/h 6mph /  9.7km/h 79% 0in /  0.0mm 176 W/m2
16:35 62.1 °F /  16.7 °C 55.4 °F /  13 °C 29.9in /  1011.9hPa West 4mph /  6.4km/h 6mph /  9.7km/h 79% 0in /  0.0mm 183 W/m2
16:40 62.2 °F /  16.8 °C 54.9 °F /  12.7 °C 29.9in /  1011.9hPa WNW 2mph /  3.2km/h 4mph /  6.4km/h 77% 0in /  0.0mm 200 W/m2
16:45 62.4 °F /  16.9 °C 55 °F /  12.8 °C 29.9in /  1011.5hPa WNW 2mph /  3.2km/h 6mph /  9.7km/h 77% 0in /  0.0mm 241 W/m2
16:50 62.8 °F /  17.1 °C 55 °F /  12.8 °C 29.9in /  1011.5hPa WNW 2mph /  3.2km/h 7mph /  11.3km/h 76% 0in /  0.0mm 257 W/m2
16:55 63.1 °F /  17.3 °C 55.4 °F /  13 °C 29.9in /  1011.5hPa WNW 2.9mph /  4.7km/h 3mph /  4.8km/h 76% 0in /  0.0mm 278 W/m2
17:00 63.3 °F /  17.4 °C 54.5 °F /  12.5 °C 29.9in /  1011.5hPa West 2.9mph /  4.7km/h 4mph /  6.4km/h 73% 0in /  0.0mm 251 W/m2
17:05 63.5 °F /  17.5 °C 54.7 °F /  12.6 °C 29.9in /  1011.5hPa West 2.9mph /  4.7km/h 4mph /  6.4km/h 73% 0in /  0.0mm 267 W/m2
17:10 63.9 °F /  17.7 °C 54.7 °F /  12.6 °C 29.9in /  1011.5hPa WNW 4mph /  6.4km/h 4mph /  6.4km/h 72% 0in /  0.0mm 265 W/m2
17:15 64 °F /  17.8 °C 54.9 °F /  12.7 °C 29.9in /  1011.5hPa WNW 0.9mph /  1.4km/h 2mph /  3.2km/h 72% 0in /  0.0mm 179 W/m2
17:20 64 °F /  17.8 °C 55.2 °F /  12.9 °C 29.9in /  1011.5hPa NNW 2mph /  3.2km/h 4mph /  6.4km/h 73% 0in /  0.0mm 183 W/m2
17:25 64 °F /  17.8 °C 55.9 °F /  13.3 °C 29.9in /  1011.5hPa North 2mph /  3.2km/h 5mph /  8km/h 75% 0in /  0.0mm 195 W/m2
17:30 63.7 °F /  17.6 °C 55.9 °F /  13.3 °C 29.9in /  1011.5hPa NNW 0.9mph /  1.4km/h 3mph /  4.8km/h 76% 0in /  0.0mm 211 W/m2
17:35 63.5 °F /  17.5 °C 56.1 °F /  13.4 °C 29.9in /  1011.5hPa NW 4mph /  6.4km/h 8mph /  12.9km/h 77% 0in /  0.0mm 162 W/m2
17:40 63.1 °F /  17.3 °C 55.4 °F /  13 °C 29.9in /  1011.5hPa WNW 4mph /  6.4km/h 4mph /  6.4km/h 76% 0in /  0.0mm 181 W/m2
17:45 63 °F /  17.2 °C 55.2 °F /  12.9 °C 29.9in /  1011.5hPa NNE 4.9mph /  7.9km/h 7mph /  11.3km/h 76% 0in /  0.0mm 195 W/m2
17:50 63 °F /  17.2 °C 55.2 °F /  12.9 °C 29.9in /  1011.2hPa West 6.9mph /  11.1km/h 9mph /  14.5km/h 76% 0in /  0.0mm 186 W/m2
17:55 63 °F /  17.2 °C 55.2 °F /  12.9 °C 29.9in /  1011.5hPa NW 4.9mph /  7.9km/h 8mph /  12.9km/h 76% 0in /  0.0mm 167 W/m2
18:00 63 °F /  17.2 °C 55.2 °F /  12.9 °C 29.9in /  1011.2hPa NNW 0.9mph /  1.4km/h 4mph /  6.4km/h 76% 0in /  0.0mm 158 W/m2
18:05 63 °F /  17.2 °C 55.6 °F /  13.1 °C 29.9in /  1011.2hPa WNW 4mph /  6.4km/h 5mph /  8km/h 77% 0in /  0.0mm 132 W/m2
18:10 62.8 °F /  17.1 °C 55 °F /  12.8 °C 29.9in /  1011.2hPa WNW 2mph /  3.2km/h 5mph /  8km/h 76% 0in /  0.0mm 125 W/m2
18:15 62.8 °F /  17.1 °C 54.7 °F /  12.6 °C 29.9in /  1011.2hPa WNW 0.9mph /  1.4km/h 8mph /  12.9km/h 75% 0in /  0.0mm 134 W/m2
18:20 62.8 °F /  17.1 °C 54.7 °F /  12.6 °C 29.9in /  1011.2hPa WNW 2mph /  3.2km/h 4mph /  6.4km/h 75% 0in /  0.0mm 135 W/m2
18:25 63 °F /  17.2 °C 54.9 °F /  12.7 °C 29.9in /  1011.2hPa NW 2mph /  3.2km/h 4mph /  6.4km/h 75% 0in /  0.0mm 132 W/m2
18:30 63.1 °F /  17.3 °C 55 °F /  12.8 °C 29.9in /  1011.2hPa WNW 2mph /  3.2km/h 3mph /  4.8km/h 75% 0in /  0.0mm 127 W/m2
18:35 63.5 °F /  17.5 °C 55 °F /  12.8 °C 29.9in /  1011.2hPa NW 2mph /  3.2km/h 5mph /  8km/h 74% 0in /  0.0mm 125 W/m2
18:40 63.7 °F /  17.6 °C 55.2 °F /  12.9 °C 29.9in /  1011.2hPa NW 0.9mph /  1.4km/h 3mph /  4.8km/h 74% 0in /  0.0mm 123 W/m2
18:45 63.7 °F /  17.6 °C 55.2 °F /  12.9 °C 29.9in /  1011.2hPa West 0.9mph /  1.4km/h 5mph /  8km/h 74% 0in /  0.0mm 118 W/m2
18:50 63.9 °F /  17.7 °C 55 °F /  12.8 °C 29.9in /  1011.2hPa Calm   2mph /  3.2km/h 73% 0in /  0.0mm 107 W/m2
18:55 63.9 °F /  17.7 °C 54.7 °F /  12.6 °C 29.9in /  1011.2hPa WNW 2.9mph /  4.7km/h 5mph /  8km/h 72% 0in /  0.0mm 104 W/m2
19:00 63.9 °F /  17.7 °C 54.7 °F /  12.6 °C 29.9in /  1010.8hPa Calm   2mph /  3.2km/h 72% 0in /  0.0mm 97 W/m2
19:06 63.9 °F /  17.7 °C 54.3 °F /  12.4 °C 29.9in /  1010.8hPa NW 2mph /  3.2km/h 3mph /  4.8km/h 71% 0in /  0.0mm 90 W/m2
19:11 63.9 °F /  17.7 °C 54.7 °F /  12.6 °C 29.9in /  1010.8hPa Calm   3mph /  4.8km/h 72% 0in /  0.0mm 83 W/m2
19:16 63.9 °F /  17.7 °C 55 °F /  12.8 °C 29.9in /  1010.8hPa Calm   1mph /  1.6km/h 73% 0in /  0.0mm 76 W/m2
19:21 63.9 °F /  17.7 °C 54.7 °F /  12.6 °C 29.9in /  1011.2hPa NNW 2mph /  3.2km/h 3mph /  4.8km/h 72% 0in /  0.0mm 67 W/m2
19:26 63.9 °F /  17.7 °C 55.4 °F /  13 °C 29.9in /  1011.2hPa WNW 2mph /  3.2km/h 2mph /  3.2km/h 74% 0in /  0.0mm 62 W/m2
19:31 63.7 °F /  17.6 °C 55.2 °F /  12.9 °C 29.9in /  1011.2hPa West 4mph /  6.4km/h 4mph /  6.4km/h 74% 0in /  0.0mm 51 W/m2
19:36 63.7 °F /  17.6 °C 55.2 °F /  12.9 °C 29.9in /  1011.2hPa West 2.9mph /  4.7km/h 3mph /  4.8km/h 74% 0in /  0.0mm 49 W/m2
19:41 63.3 °F /  17.4 °C 54.9 °F /  12.7 °C 29.9in /  1011.2hPa WSW 0.9mph /  1.4km/h 3mph /  4.8km/h 74% 0in /  0.0mm 49 W/m2
19:46 63.3 °F /  17.4 °C 54.9 °F /  12.7 °C 29.9in /  1011.2hPa WNW 2mph /  3.2km/h 3mph /  4.8km/h 74% 0in /  0.0mm 39 W/m2
19:51 63.3 °F /  17.4 °C 55.2 °F /  12.9 °C 29.9in /  1011.2hPa Calm   3mph /  4.8km/h 75% 0in /  0.0mm 32 W/m2
19:56 63.3 °F /  17.4 °C 55.2 °F /  12.9 °C 29.9in /  1011.2hPa NE 0.9mph /  1.4km/h 2mph /  3.2km/h 75% 0in /  0.0mm 26 W/m2
20:01 63.3 °F /  17.4 °C 55.2 °F /  12.9 °C 29.9in /  1011.2hPa NE 2mph /  3.2km/h 3mph /  4.8km/h 75% 0in /  0.0mm 16 W/m2
20:06 63 °F /  17.2 °C 55.9 °F /  13.3 °C 29.9in /  1011.2hPa ENE 4mph /  6.4km/h 5mph /  8km/h 78% 0in /  0.0mm 11 W/m2
20:11 62.4 °F /  16.9 °C 56.5 °F /  13.6 °C 29.9in /  1011.5hPa ESE 0.9mph /  1.4km/h 5mph /  8km/h 81% 0.01in /  0.2mm 11 W/m2
20:16 61.5 °F /  16.4 °C 56.3 °F /  13.5 °C 29.9in /  1011.5hPa SE 0.9mph /  1.4km/h 2mph /  3.2km/h 83% 0.06in /  1.5mm 18 W/m2
20:21 60.8 °F /  16 °C 56.3 °F /  13.5 °C 29.9in /  1011.5hPa SE 0.9mph /  1.4km/h 1mph /  1.6km/h 85% 0.1in /  2.5mm 21 W/m2
20:26 60.3 °F /  15.7 °C 56.3 °F /  13.5 °C 29.9in /  1011.5hPa Calm   1mph /  1.6km/h 87% 0.13in /  3.3mm 21 W/m2
20:31 59.7 °F /  15.4 °C 56.5 °F /  13.6 °C 29.9in /  1011.2hPa Calm   1mph /  1.6km/h 89% 0.14in /  3.6mm 19 W/m2
20:36 59.4 °F /  15.2 °C 56.5 °F /  13.6 °C 29.9in /  1011.5hPa Calm   1mph /  1.6km/h 90% 0.15in /  3.8mm 18 W/m2
20:41 59 °F /  15 °C 56.1 °F /  13.4 °C 29.9in /  1011.2hPa East 0.9mph /  1.4km/h 2mph /  3.2km/h 90% 0.15in /  3.8mm 16 W/m2
20:46 58.8 °F /  14.9 °C 56.1 °F /  13.4 °C 29.9in /  1011.2hPa Calm   1mph /  1.6km/h 91% 0.17in /  4.3mm 14 W/m2
20:51 58.6 °F /  14.8 °C 55.9 °F /  13.3 °C 29.9in /  1011.2hPa SW 0.9mph /  1.4km/h 2mph /  3.2km/h 91% 0.17in /  4.3mm 12 W/m2
20:56 58.5 °F /  14.7 °C 56.1 °F /  13.4 °C 29.9in /  1011.2hPa Calm   1mph /  1.6km/h 92% 0.17in /  4.3mm 11 W/m2
21:01 58.3 °F /  14.6 °C 56.3 °F /  13.5 °C 29.9in /  1011.5hPa SW 0.9mph /  1.4km/h 1mph /  1.6km/h 93% 0.18in /  4.6mm 9 W/m2
21:06 58.1 °F /  14.5 °C 55.8 °F /  13.2 °C 29.9in /  1011.5hPa Calm     92% 0.18in /  4.6mm 7 W/m2
21:11 57.9 °F /  14.4 °C 55.9 °F /  13.3 °C 29.9in /  1011.5hPa Calm     93% 0.18in /  4.6mm 7 W/m2
21:16 57.7 °F /  14.3 °C 55.8 °F /  13.2 °C 29.9in /  1011.5hPa Calm   1mph /  1.6km/h 93% 0.16in /  4.1mm 5 W/m2
21:21 57.6 °F /  14.2 °C 55.6 °F /  13.1 °C 29.9in /  1011.5hPa Calm   1mph /  1.6km/h 93% 0.15in /  3.8mm 5 W/m2
21:26 57.6 °F /  14.2 °C 55.6 °F /  13.1 °C 29.9in /  1011.5hPa Calm   1mph /  1.6km/h 93% 0.13in /  3.3mm 0 W/m2
21:31 57.4 °F /  14.1 °C 55.6 °F /  13.1 °C 29.9in /  1011.5hPa SW 0.9mph /  1.4km/h 2mph /  3.2km/h 94% 0.13in /  3.3mm 0 W/m2
21:36 57.2 °F /  14 °C 55.4 °F /  13 °C 29.9in /  1011.5hPa Calm   1mph /  1.6km/h 94% 0.13in /  3.3mm 0 W/m2
21:41 57 °F /  13.9 °C 55.2 °F /  12.9 °C 29.9in /  1011.5hPa Calm   2mph /  3.2km/h 94% 0.13in /  3.3mm 0 W/m2
21:46 57 °F /  13.9 °C 55.2 °F /  12.9 °C 29.9in /  1011.5hPa Calm     94% 0.11in /  2.8mm 0 W/m2
21:51 57 °F /  13.9 °C 55.2 °F /  12.9 °C 29.9in /  1011.5hPa SW 0.9mph /  1.4km/h 2mph /  3.2km/h 94% 0.1in /  2.5mm 0 W/m2
21:56 56.8 °F /  13.8 °C 55.2 °F /  12.9 °C 29.9in /  1011.5hPa Calm   1mph /  1.6km/h 94% 0.11in /  2.8mm 0 W/m2
22:02 56.8 °F /  13.8 °C 55.2 °F /  12.9 °C 29.9in /  1011.5hPa SW 0.9mph /  1.4km/h 1mph /  1.6km/h 94% 0.11in /  2.8mm 0 W/m2
22:07 56.7 °F /  13.7 °C 55 °F /  12.8 °C 29.9in /  1011.5hPa Calm   1mph /  1.6km/h 94% 0.12in /  3.0mm 0 W/m2
22:12 56.7 °F /  13.7 °C 55.2 °F /  12.9 °C 29.9in /  1011.5hPa Calm   1mph /  1.6km/h 95% 0.11in /  2.8mm 0 W/m2
22:17 56.7 °F /  13.7 °C 55.2 °F /  12.9 °C 29.9in /  1011.9hPa Calm   1mph /  1.6km/h 95% 0.07in /  1.8mm 0 W/m2
22:22 56.7 °F /  13.7 °C 55.2 °F /  12.9 °C 29.9in /  1011.5hPa Calm     95% 0.06in /  1.5mm 0 W/m2
22:27 56.7 °F /  13.7 °C 55.2 °F /  12.9 °C 29.9in /  1011.9hPa Calm   1mph /  1.6km/h 95% 0.05in /  1.3mm 0 W/m2
22:32 56.8 °F /  13.8 °C 55.4 °F /  13 °C 29.9in /  1011.9hPa Calm     95% 0.04in /  1.0mm 0 W/m2
22:37 56.8 °F /  13.8 °C 55.4 °F /  13 °C 29.9in /  1011.9hPa Calm     95% 0.04in /  1.0mm 0 W/m2
22:43 56.8 °F /  13.8 °C 55.4 °F /  13 °C 29.9in /  1011.9hPa Calm     95% 0.04in /  1.0mm 0 W/m2
22:48 56.8 °F /  13.8 °C 55.4 °F /  13 °C 29.9in /  1011.9hPa SW 1mph /  1.6km/h 1mph /  1.6km/h 95% 0.04in /  1.0mm 0 W/m2
22:53 56.8 °F /  13.8 °C 55.4 °F /  13 °C 29.9in /  1011.9hPa SW 0.9mph /  1.4km/h 2mph /  3.2km/h 95% 0.04in /  1.0mm 0 W/m2
22:58 56.8 °F /  13.8 °C 55.4 °F /  13 °C 29.9in /  1011.9hPa SW 2mph /  3.2km/h 2mph /  3.2km/h 95% 0.03in /  0.8mm 0 W/m2
23:03 56.8 °F /  13.8 °C 55.4 °F /  13 °C 29.9in /  1011.5hPa WSW 0.9mph /  1.4km/h 3mph /  4.8km/h 95% 0.02in /  0.5mm 0 W/m2
23:08 56.8 °F /  13.8 °C 55.4 °F /  13 °C 29.9in /  1011.5hPa WSW 2mph /  3.2km/h 2mph /  3.2km/h 95% 0.02in /  0.5mm 0 W/m2
23:13 56.8 °F /  13.8 °C 55.8 °F /  13.2 °C 29.9in /  1011.5hPa Calm   3mph /  4.8km/h 96% 0.01in /  0.2mm 0 W/m2
23:18 56.8 °F /  13.8 °C 55.8 °F /  13.2 °C 29.9in /  1011.5hPa WSW 2mph /  3.2km/h 2mph /  3.2km/h 96% 0in /  0.0mm 0 W/m2
23:23 56.8 °F /  13.8 °C 55.8 °F /  13.2 °C 29.9in /  1011.5hPa West 0.9mph /  1.4km/h 4mph /  6.4km/h 96% 0in /  0.0mm 0 W/m2
23:28 56.8 °F /  13.8 °C 55.8 °F /  13.2 °C 29.9in /  1011.5hPa West 2mph /  3.2km/h 3mph /  4.8km/h 96% 0in /  0.0mm 0 W/m2
23:33 56.8 °F /  13.8 °C 55.8 °F /  13.2 °C 29.9in /  1011.5hPa West 0.9mph /  1.4km/h 3mph /  4.8km/h 96% 0in /  0.0mm 0 W/m2
23:38 56.8 °F /  13.8 °C 55.4 °F /  13 °C 29.9in /  1011.5hPa West 0.9mph /  1.4km/h 2mph /  3.2km/h 95% 0in /  0.0mm 0 W/m2
23:44 56.7 °F /  13.7 °C 55.6 °F /  13.1 °C 29.9in /  1011.5hPa Calm   3mph /  4.8km/h 96% 0in /  0.0mm 0 W/m2
23:49 56.7 °F /  13.7 °C 55.6 °F /  13.1 °C 29.9in /  1011.2hPa West 0.9mph /  1.4km/h 1mph /  1.6km/h 96% 0in /  0.0mm 0 W/m2
23:54 56.7 °F /  13.7 °C 55.6 °F /  13.1 °C 29.9in /  1011.2hPa Calm     96% 0in /  0.0mm 0 W/m2
23:59 56.7 °F /  13.7 °C 55.6 °F /  13.1 °C 29.9in /  1011.2hPa Calm     96% 0in /  0.0mm 0 W/m2
Juneau County Weather
Compliments of Weather Underground - 4 mb